sensor_id;sensor_type;location;lat;lon;timestamp;pressure;altitude;pressure_sealevel;temperature;humidity
8637;BME280;4356;49.068;8.658;2023-04-07T00:01:30;99914.34;;;19.03;32.88
8637;BME280;4356;49.068;8.658;2023-04-07T00:03:55;99908.06;;;19.03;32.58
8637;BME280;4356;49.068;8.658;2023-04-07T00:06:21;99913.50;;;19.03;32.72
8637;BME280;4356;49.068;8.658;2023-04-07T00:08:47;99910.63;;;18.98;32.47
8637;BME280;4356;49.068;8.658;2023-04-07T00:11:12;99916.69;;;19.00;32.58
8637;BME280;4356;49.068;8.658;2023-04-07T00:13:38;99907.28;;;18.96;32.72
8637;BME280;4356;49.068;8.658;2023-04-07T00:16:04;99906.03;;;18.98;32.53
8637;BME280;4356;49.068;8.658;2023-04-07T00:18:30;99903.53;;;18.97;32.70
8637;BME280;4356;49.068;8.658;2023-04-07T00:20:55;99905.63;;;18.95;32.86
8637;BME280;4356;49.068;8.658;2023-04-07T00:23:21;99903.13;;;18.93;32.57
8637;BME280;4356;49.068;8.658;2023-04-07T00:25:47;99898.50;;;18.94;32.30
8637;BME280;4356;49.068;8.658;2023-04-07T00:28:13;99895.78;;;18.94;32.44
8637;BME280;4356;49.068;8.658;2023-04-07T00:30:38;99889.72;;;18.92;32.81
8637;BME280;4356;49.068;8.658;2023-04-07T00:33:04;99891.84;;;18.90;32.70
8637;BME280;4356;49.068;8.658;2023-04-07T00:35:30;99887.22;;;18.90;32.67
8637;BME280;4356;49.068;8.658;2023-04-07T00:37:55;99876.81;;;18.87;32.76
8637;BME280;4356;49.068;8.658;2023-04-07T00:40:21;99874.91;;;18.88;32.75
8637;BME280;4356;49.068;8.658;2023-04-07T00:42:47;99869.47;;;18.88;32.89
8637;BME280;4356;49.068;8.658;2023-04-07T00:45:12;99874.31;;;18.86;33.00
8637;BME280;4356;49.068;8.658;2023-04-07T00:47:38;99862.81;;;18.84;32.76
8637;BME280;4356;49.068;8.658;2023-04-07T00:50:04;99855.69;;;18.83;32.74
8637;BME280;4356;49.068;8.658;2023-04-07T00:52:31;99855.06;;;18.81;32.59
8637;BME280;4356;49.068;8.658;2023-04-07T00:54:59;99858.41;;;18.83;33.00
8637;BME280;4356;49.068;8.658;2023-04-07T00:57:24;99855.91;;;18.81;32.84
8637;BME280;4356;49.068;8.658;2023-04-07T00:59:51;99847.13;;;18.79;32.81
8637;BME280;4356;49.068;8.658;2023-04-07T01:05:09;99849.63;;;18.81;32.93
8637;BME280;4356;49.068;8.658;2023-04-07T01:10:51;99830.41;;;18.76;33.06
8637;BME280;4356;49.068;8.658;2023-04-07T01:15:51;99826.28;;;18.73;32.88
8637;BME280;4356;49.068;8.658;2023-04-07T01:18:25;99816.66;;;18.71;32.82
8637;BME280;4356;49.068;8.658;2023-04-07T01:20:54;99821.03;;;18.72;33.15
8637;BME280;4356;49.068;8.658;2023-04-07T01:23:30;99814.53;;;18.73;32.79
8637;BME280;4356;49.068;8.658;2023-04-07T01:31:39;99812.72;;;18.67;33.22
8637;BME280;4356;49.068;8.658;2023-04-07T01:34:09;99808.09;;;18.67;33.11
8637;BME280;4356;49.068;8.658;2023-04-07T01:36:36;99813.31;;;18.69;33.19
8637;BME280;4356;49.068;8.658;2023-04-07T01:39:03;99802.06;;;18.65;32.94
8637;BME280;4356;49.068;8.658;2023-04-07T01:41:30;99804.16;;;18.63;33.25
8637;BME280;4356;49.068;8.658;2023-04-07T01:43:56;99800.41;;;18.64;33.15
8637;BME280;4356;49.068;8.658;2023-04-07T01:46:22;99798.94;;;18.62;32.89
8637;BME280;4356;49.068;8.658;2023-04-07T01:48:48;99790.19;;;18.60;33.20
8637;BME280;4356;49.068;8.658;2023-04-07T01:51:15;99794.34;;;18.62;33.35
8637;BME280;4356;49.068;8.658;2023-04-07T01:53:44;99789.09;;;18.61;33.34
8637;BME280;4356;49.068;8.658;2023-04-07T01:56:10;99797.69;;;18.64;33.00
8637;BME280;4356;49.068;8.658;2023-04-07T01:58:36;99788.28;;;18.60;33.33
8637;BME280;4356;49.068;8.658;2023-04-07T02:01:02;99798.72;;;18.63;33.18
8637;BME280;4356;49.068;8.658;2023-04-07T02:03:44;99793.75;;;18.60;33.28
8637;BME280;4356;49.068;8.658;2023-04-07T02:06:18;99788.94;;;18.56;33.12
8637;BME280;4356;49.068;8.658;2023-04-07T02:08:50;99783.50;;;18.56;33.09
8637;BME280;4356;49.068;8.658;2023-04-07T02:11:19;99778.06;;;18.56;33.38
8637;BME280;4356;49.068;8.658;2023-04-07T02:13:46;99785.81;;;18.59;33.33
8637;BME280;4356;49.068;8.658;2023-04-07T02:16:12;99779.13;;;18.55;33.41
8637;BME280;4356;49.068;8.658;2023-04-07T02:18:40;99784.13;;;18.58;33.26
8637;BME280;4356;49.068;8.658;2023-04-07T02:21:06;99776.66;;;18.53;33.35
8637;BME280;4356;49.068;8.658;2023-04-07T02:23:36;99776.66;;;18.53;33.27
8637;BME280;4356;49.068;8.658;2023-04-07T02:26:02;99774.97;;;18.52;33.63
8637;BME280;4356;49.068;8.658;2023-04-07T02:28:27;99780.41;;;18.52;33.12
8637;BME280;4356;49.068;8.658;2023-04-07T02:30:53;99772.47;;;18.51;33.29
8637;BME280;4356;49.068;8.658;2023-04-07T02:33:19;99773.31;;;18.51;33.36
8637;BME280;4356;49.068;8.658;2023-04-07T02:35:44;99765.16;;;18.51;33.46
8637;BME280;4356;49.068;8.658;2023-04-07T02:38:10;99763.94;;;18.47;33.52
8637;BME280;4356;49.068;8.658;2023-04-07T02:40:36;99775.19;;;18.51;33.27
8637;BME280;4356;49.068;8.658;2023-04-07T02:43:01;99774.13;;;18.52;33.31
8637;BME280;4356;49.068;8.658;2023-04-07T02:45:29;99763.69;;;18.48;33.39
8637;BME280;4356;49.068;8.658;2023-04-07T02:47:55;99764.53;;;18.49;33.53
8637;BME280;4356;49.068;8.658;2023-04-07T02:50:21;99758.50;;;18.47;33.59
8637;BME280;4356;49.068;8.658;2023-04-07T02:52:46;99755.53;;;18.48;33.26
8637;BME280;4356;49.068;8.658;2023-04-07T02:55:12;99762.84;;;18.48;33.57
8637;BME280;4356;49.068;8.658;2023-04-07T02:57:37;99759.56;;;18.46;33.50
8637;BME280;4356;49.068;8.658;2023-04-07T03:00:03;99756.22;;;18.44;33.23
8637;BME280;4356;49.068;8.658;2023-04-07T03:02:29;99744.50;;;18.43;33.54
8637;BME280;4356;49.068;8.658;2023-04-07T03:04:55;99747.47;;;18.42;33.21
8637;BME280;4356;49.068;8.658;2023-04-07T03:07:21;99759.16;;;18.42;33.58
8637;BME280;4356;49.068;8.658;2023-04-07T03:09:46;99752.06;;;18.41;33.28
8637;BME280;4356;49.068;8.658;2023-04-07T03:12:12;99749.53;;;18.40;33.48
8637;BME280;4356;49.068;8.658;2023-04-07T03:14:38;99740.75;;;18.38;33.67
8637;BME280;4356;49.068;8.658;2023-04-07T03:17:03;99740.75;;;18.38;33.35
8637;BME280;4356;49.068;8.658;2023-04-07T03:19:29;99748.69;;;18.39;33.83
8637;BME280;4356;49.068;8.658;2023-04-07T03:21:54;99741.59;;;18.38;33.91
8637;BME280;4356;49.068;8.658;2023-04-07T03:24:20;99745.13;;;18.39;33.64
8637;BME280;4356;49.068;8.658;2023-04-07T03:26:46;99742.88;;;18.36;33.73
8637;BME280;4356;49.068;8.658;2023-04-07T03:29:11;99733.88;;;18.35;33.59
8637;BME280;4356;49.068;8.658;2023-04-07T03:31:37;99723.53;;;18.26;33.64
8637;BME280;4356;49.068;8.658;2023-04-07T03:34:03;99733.47;;;18.32;33.44
8637;BME280;4356;49.068;8.658;2023-04-07T03:36:29;99735.97;;;18.33;33.52
8637;BME280;4356;49.068;8.658;2023-04-07T03:38:56;99740.38;;;18.34;33.77
8637;BME280;4356;49.068;8.658;2023-04-07T03:41:22;99735.97;;;18.33;33.69
8637;BME280;4356;49.068;8.658;2023-04-07T03:43:47;99730.16;;;18.30;33.79
8637;BME280;4356;49.068;8.658;2023-04-07T03:46:13;99728.28;;;18.30;33.54
8637;BME280;4356;49.068;8.658;2023-04-07T03:48:39;99732.44;;;18.33;33.86
8637;BME280;4356;49.068;8.658;2023-04-07T03:51:05;99723.94;;;18.23;33.71
8637;BME280;4356;49.068;8.658;2023-04-07T03:53:31;99737.88;;;18.33;33.47
8637;BME280;4356;49.068;8.658;2023-04-07T03:55:57;99736.22;;;18.32;33.59
8637;BME280;4356;49.068;8.658;2023-04-07T03:58:23;99740.00;;;18.31;34.00
8637;BME280;4356;49.068;8.658;2023-04-07T04:00:49;99737.50;;;18.29;33.63
8637;BME280;4356;49.068;8.658;2023-04-07T04:03:14;99724.13;;;18.28;33.89
8637;BME280;4356;49.068;8.658;2023-04-07T04:05:40;99726.00;;;18.27;33.46
8637;BME280;4356;49.068;8.658;2023-04-07T04:08:06;99731.22;;;18.29;33.54
8637;BME280;4356;49.068;8.658;2023-04-07T04:10:31;99727.06;;;18.26;34.02
8637;BME280;4356;49.068;8.658;2023-04-07T04:12:57;99713.31;;;18.21;33.64
8637;BME280;4356;49.068;8.658;2023-04-07T04:15:25;99715.41;;;18.19;33.55
8637;BME280;4356;49.068;8.658;2023-04-07T04:17:51;99736.75;;;18.22;33.83
8637;BME280;4356;49.068;8.658;2023-04-07T04:20:16;99730.47;;;18.22;33.77
8637;BME280;4356;49.068;8.658;2023-04-07T04:22:42;99732.94;;;18.23;33.66
8637;BME280;4356;49.068;8.658;2023-04-07T04:25:08;99723.41;;;18.14;33.52
8637;BME280;4356;49.068;8.658;2023-04-07T04:27:34;99734.59;;;18.24;33.77
8637;BME280;4356;49.068;8.658;2023-04-07T04:29:59;99734.03;;;18.22;33.59
8637;BME280;4356;49.068;8.658;2023-04-07T04:32:25;99743.00;;;18.23;33.68
8637;BME280;4356;49.068;8.658;2023-04-07T04:34:51;99739.47;;;18.22;33.67
8637;BME280;4356;49.068;8.658;2023-04-07T04:37:16;99723.19;;;18.16;33.83
8637;BME280;4356;49.068;8.658;2023-04-07T04:39:42;99740.13;;;18.18;33.61
8637;BME280;4356;49.068;8.658;2023-04-07T04:42:08;99745.09;;;18.21;34.01
8637;BME280;4356;49.068;8.658;2023-04-07T04:44:33;99743.69;;;18.18;33.92
8637;BME280;4356;49.068;8.658;2023-04-07T04:46:59;99741.19;;;18.17;33.92
8637;BME280;4356;49.068;8.658;2023-04-07T04:49:25;99743.91;;;18.17;33.59
8637;BME280;4356;49.068;8.658;2023-04-07T04:51:50;99734.53;;;18.13;34.03
8637;BME280;4356;49.068;8.658;2023-04-07T04:54:18;99739.72;;;18.14;34.20
8637;BME280;4356;49.068;8.658;2023-04-07T04:56:43;99735.38;;;18.13;33.99
8637;BME280;4356;49.068;8.658;2023-04-07T04:59:09;99747.66;;;18.16;33.77
8637;BME280;4356;49.068;8.658;2023-04-07T05:01:35;99735.19;;;18.08;33.85
8637;BME280;4356;49.068;8.658;2023-04-07T05:04:01;99743.53;;;18.13;33.84
8637;BME280;4356;49.068;8.658;2023-04-07T05:06:26;99744.09;;;18.15;33.78
8637;BME280;4356;49.068;8.658;2023-04-07T05:08:52;99750.63;;;18.14;33.80
8637;BME280;4356;49.068;8.658;2023-04-07T05:11:18;99740.34;;;18.16;33.86
8637;BME280;4356;49.068;8.658;2023-04-07T05:13:46;99746.41;;;18.18;33.72
8637;BME280;4356;49.068;8.658;2023-04-07T05:16:12;99738.91;;;18.14;33.84
8637;BME280;4356;49.068;8.658;2023-04-07T05:18:38;99730.97;;;18.12;33.67
8637;BME280;4356;49.068;8.658;2023-04-07T05:21:03;99748.88;;;18.20;33.78
8637;BME280;4356;49.068;8.658;2023-04-07T05:23:29;99737.84;;;18.15;33.80
8637;BME280;4356;49.068;8.658;2023-04-07T05:25:55;99748.44;;;18.23;33.62
8637;BME280;4356;49.068;8.658;2023-04-07T05:28:21;99744.91;;;18.22;33.81
8637;BME280;4356;49.068;8.658;2023-04-07T05:30:47;99741.72;;;18.25;33.59
8637;BME280;4356;49.068;8.658;2023-04-07T05:33:12;99748.63;;;18.28;33.53
8637;BME280;4356;49.068;8.658;2023-04-07T05:35:38;99756.31;;;18.31;33.83
8637;BME280;4356;49.068;8.658;2023-04-07T05:38:04;99744.81;;;18.29;33.50
8637;BME280;4356;49.068;8.658;2023-04-07T05:40:29;99759.44;;;18.34;33.64
8637;BME280;4356;49.068;8.658;2023-04-07T05:42:55;99749.00;;;18.31;33.44
8637;BME280;4356;49.068;8.658;2023-04-07T05:45:21;99763.97;;;18.40;33.55
8637;BME280;4356;49.068;8.658;2023-04-07T05:47:46;99762.09;;;18.41;33.34
8637;BME280;4356;49.068;8.658;2023-04-07T05:50:15;99769.00;;;18.43;33.69
8637;BME280;4356;49.068;8.658;2023-04-07T05:52:41;99763.78;;;18.42;33.63
8637;BME280;4356;49.068;8.658;2023-04-07T05:55:07;99757.28;;;18.43;33.69
8637;BME280;4356;49.068;8.658;2023-04-07T05:57:32;99762.47;;;18.44;33.82
8637;BME280;4356;49.068;8.658;2023-04-07T05:59:59;99758.94;;;18.44;33.46
8637;BME280;4356;49.068;8.658;2023-04-07T06:02:24;99758.94;;;18.44;33.81
8637;BME280;4356;49.068;8.658;2023-04-07T06:04:50;99761.81;;;18.49;33.34
8637;BME280;4356;49.068;8.658;2023-04-07T06:07:16;99767.66;;;18.53;33.26
8637;BME280;4356;49.068;8.658;2023-04-07T06:09:41;99761.97;;;18.54;33.39
8637;BME280;4356;49.068;8.658;2023-04-07T06:12:08;99765.53;;;18.55;33.42
8637;BME280;4356;49.068;8.658;2023-04-07T06:14:35;99763.66;;;18.55;33.29
8637;BME280;4356;49.068;8.658;2023-04-07T06:17:00;99758.41;;;18.54;33.36
8637;BME280;4356;49.068;8.658;2023-04-07T06:19:26;99761.50;;;18.57;33.59
8637;BME280;4356;49.068;8.658;2023-04-07T06:21:52;99760.94;;;18.55;33.41
8637;BME280;4356;49.068;8.658;2023-04-07T06:24:18;99758.78;;;18.57;33.55
8637;BME280;4356;49.068;8.658;2023-04-07T06:26:47;99762.97;;;18.60;33.23
8637;BME280;4356;49.068;8.658;2023-04-07T06:29:13;99757.75;;;18.58;33.51
8637;BME280;4356;49.068;8.658;2023-04-07T06:31:39;99745.19;;;18.57;33.52
8637;BME280;4356;49.068;8.658;2023-04-07T06:34:04;99741.47;;;18.52;33.31
8637;BME280;4356;49.068;8.658;2023-04-07T06:36:30;99756.25;;;18.62;33.47
8637;BME280;4356;49.068;8.658;2023-04-07T06:38:58;99749.97;;;18.62;33.43
8637;BME280;4356;49.068;8.658;2023-04-07T06:41:23;99734.38;;;18.51;33.32
8637;BME280;4356;49.068;8.658;2023-04-07T06:43:49;99750.81;;;18.62;33.84
8637;BME280;4356;49.068;8.658;2023-04-07T06:46:16;99744.38;;;18.57;33.39
8637;BME280;4356;49.068;8.658;2023-04-07T06:48:42;99751.22;;;18.59;33.24
8637;BME280;4356;49.068;8.658;2023-04-07T06:51:07;99754.13;;;18.64;33.50
8637;BME280;4356;49.068;8.658;2023-04-07T06:53:33;99735.75;;;18.60;33.12
8637;BME280;4356;49.068;8.658;2023-04-07T06:56:09;99761.97;;;18.72;33.47
8637;BME280;4356;49.068;8.658;2023-04-07T06:58:36;99756.31;;;18.74;33.38
8637;BME280;4356;49.068;8.658;2023-04-07T07:01:03;99754.19;;;18.76;33.24
8637;BME280;4356;49.068;8.658;2023-04-07T07:03:30;99757.97;;;18.75;33.40
8637;BME280;4356;49.068;8.658;2023-04-07T07:05:57;99756.69;;;18.77;33.33
8637;BME280;4356;49.068;8.658;2023-04-07T07:08:24;99752.06;;;18.78;33.28
8637;BME280;4356;49.068;8.658;2023-04-07T07:10:50;99752.06;;;18.78;33.25
8637;BME280;4356;49.068;8.658;2023-04-07T07:13:17;99750.81;;;18.80;33.32
8637;BME280;4356;49.068;8.658;2023-04-07T07:15:44;99727.66;;;18.71;33.56
8637;BME280;4356;49.068;8.658;2023-04-07T07:18:10;99747.63;;;18.83;33.42
8637;BME280;4356;49.068;8.658;2023-04-07T07:20:35;99742.16;;;18.83;33.29
8637;BME280;4356;49.068;8.658;2023-04-07T07:23:01;99748.69;;;18.82;33.24
8637;BME280;4356;49.068;8.658;2023-04-07T07:25:27;99734.84;;;18.84;33.27
8637;BME280;4356;49.068;8.658;2023-04-07T07:27:52;99744.78;;;18.90;33.36
8637;BME280;4356;49.068;8.658;2023-04-07T07:30:21;99754.41;;;18.92;33.13
8637;BME280;4356;49.068;8.658;2023-04-07T07:32:47;99752.06;;;18.96;33.51
8637;BME280;4356;49.068;8.658;2023-04-07T07:35:13;99745.78;;;18.95;33.15
8637;BME280;4356;49.068;8.658;2023-04-07T07:37:38;99735.34;;;18.92;33.11
8637;BME280;4356;49.068;8.658;2023-04-07T07:40:04;99740.34;;;18.95;33.27
8637;BME280;4356;49.068;8.658;2023-04-07T07:42:30;99750.69;;;19.05;33.31
8637;BME280;4356;49.068;8.658;2023-04-07T07:44:57;99742.75;;;19.03;33.28
8637;BME280;4356;49.068;8.658;2023-04-07T07:47:23;99750.69;;;19.05;33.18
8637;BME280;4356;49.068;8.658;2023-04-07T07:49:48;99754.16;;;19.12;33.35
8637;BME280;4356;49.068;8.658;2023-04-07T07:52:14;99759.16;;;19.15;33.15
8637;BME280;4356;49.068;8.658;2023-04-07T07:54:40;99763.31;;;19.17;33.12
8637;BME280;4356;49.068;8.658;2023-04-07T07:57:06;99743.88;;;19.14;33.37
8637;BME280;4356;49.068;8.658;2023-04-07T07:59:32;99750.28;;;19.19;33.01
8637;BME280;4356;49.068;8.658;2023-04-07T08:01:57;99760.28;;;19.25;33.08
8637;BME280;4356;49.068;8.658;2023-04-07T08:04:23;99760.66;;;19.29;32.84
8637;BME280;4356;49.068;8.658;2023-04-07T08:06:50;99758.97;;;19.28;32.94
8637;BME280;4356;49.068;8.658;2023-04-07T08:09:17;99764.16;;;19.36;32.82
8637;BME280;4356;49.068;8.658;2023-04-07T08:11:43;99762.25;;;19.36;33.05
8637;BME280;4356;49.068;8.658;2023-04-07T08:14:08;99762.63;;;19.40;32.72
8637;BME280;4356;49.068;8.658;2023-04-07T08:16:34;99771.97;;;19.44;32.95
8637;BME280;4356;49.068;8.658;2023-04-07T08:19:00;99771.53;;;19.47;32.91
8637;BME280;4356;49.068;8.658;2023-04-07T08:21:26;99744.59;;;19.39;32.80
8637;BME280;4356;49.068;8.658;2023-04-07T08:23:55;99771.66;;;19.52;32.61
8637;BME280;4356;49.068;8.658;2023-04-07T08:26:21;99757.44;;;19.50;33.01
8637;BME280;4356;49.068;8.658;2023-04-07T08:28:48;99761.50;;;19.59;32.69
8637;BME280;4356;49.068;8.658;2023-04-07T08:31:16;99745.69;;;19.49;32.64
8637;BME280;4356;49.068;8.658;2023-04-07T08:33:41;99772.31;;;19.66;32.73
8637;BME280;4356;49.068;8.658;2023-04-07T08:36:07;99763.06;;;19.67;32.90
8637;BME280;4356;49.068;8.658;2023-04-07T08:38:33;99769.47;;;19.72;32.52
8637;BME280;4356;49.068;8.658;2023-04-07T08:41:11;99775.06;;;19.77;32.54
8637;BME280;4356;49.068;8.658;2023-04-07T08:43:38;99763.31;;;19.77;32.80
8637;BME280;4356;49.068;8.658;2023-04-07T08:46:06;99766.63;;;19.79;32.61
8637;BME280;4356;49.068;8.658;2023-04-07T08:48:34;99771.16;;;19.85;32.52
8637;BME280;4356;49.068;8.658;2023-04-07T08:51:05;99781.16;;;19.91;32.68
8637;BME280;4356;49.068;8.658;2023-04-07T08:53:42;99761.09;;;19.85;32.51
8637;BME280;4356;49.068;8.658;2023-04-07T08:56:16;99781.03;;;19.97;32.55
8637;BME280;4356;49.068;8.658;2023-04-07T08:58:43;99778.91;;;19.99;32.51
8637;BME280;4356;49.068;8.658;2023-04-07T09:01:09;99769.44;;;20.02;32.39
8637;BME280;4356;49.068;8.658;2023-04-07T09:03:37;99773.56;;;20.04;32.26
8637;BME280;4356;49.068;8.658;2023-04-07T09:06:03;99780.59;;;20.12;32.43
8637;BME280;4356;49.068;8.658;2023-04-07T09:08:28;99763.25;;;20.06;32.42
8637;BME280;4356;49.068;8.658;2023-04-07T09:10:56;99773.41;;;20.17;32.30
8637;BME280;4356;49.068;8.658;2023-04-07T09:13:23;99775.88;;;20.19;32.42
8637;BME280;4356;49.068;8.658;2023-04-07T09:15:49;99772.66;;;20.22;32.39
8637;BME280;4356;49.068;8.658;2023-04-07T09:18:15;99781.00;;;20.27;32.47
8637;BME280;4356;49.068;8.658;2023-04-07T09:21:01;99785.84;;;20.36;32.31
8637;BME280;4356;49.068;8.658;2023-04-07T09:23:40;99781.81;;;20.39;32.14
8637;BME280;4356;49.068;8.658;2023-04-07T09:26:26;99782.78;;;20.44;32.16
8637;BME280;4356;49.068;8.658;2023-04-07T09:28:57;99788.84;;;20.46;32.27
8637;BME280;4356;49.068;8.658;2023-04-07T09:31:43;99781.84;;;20.51;32.16
8637;BME280;4356;49.068;8.658;2023-04-07T09:34:27;99781.09;;;20.55;32.18
8637;BME280;4356;49.068;8.658;2023-04-07T09:36:53;99773.75;;;20.56;32.10
8637;BME280;4356;49.068;8.658;2023-04-07T09:39:19;99783.75;;;20.62;32.04
8637;BME280;4356;49.068;8.658;2023-04-07T09:41:45;99775.75;;;20.60;31.99
8637;BME280;4356;49.068;8.658;2023-04-07T09:44:11;99783.34;;;20.70;32.03
8637;BME280;4356;49.068;8.658;2023-04-07T09:46:57;99784.78;;;20.72;32.23
8637;BME280;4356;49.068;8.658;2023-04-07T09:49:24;99790.34;;;20.77;32.11
8637;BME280;4356;49.068;8.658;2023-04-07T09:52:01;99787.63;;;20.77;31.98
8637;BME280;4356;49.068;8.658;2023-04-07T09:54:33;99779.19;;;20.79;31.98
8637;BME280;4356;49.068;8.658;2023-04-07T09:57:01;99780.38;;;20.83;32.01
8637;BME280;4356;49.068;8.658;2023-04-07T09:59:29;99787.84;;;20.87;31.95
8637;BME280;4356;49.068;8.658;2023-04-07T10:01:55;99787.13;;;20.92;31.91
8637;BME280;4356;49.068;8.658;2023-04-07T10:04:21;99781.78;;;20.97;32.05
8637;BME280;4356;49.068;8.658;2023-04-07T10:06:48;99789.72;;;20.98;31.84
8637;BME280;4356;49.068;8.658;2023-04-07T10:09:13;99779.03;;;20.97;31.76
8637;BME280;4356;49.068;8.658;2023-04-07T10:11:43;99789.16;;;21.08;31.93
8637;BME280;4356;49.068;8.658;2023-04-07T10:14:09;99788.06;;;21.09;31.94
8637;BME280;4356;49.068;8.658;2023-04-07T10:16:36;99787.00;;;21.10;32.10
8637;BME280;4356;49.068;8.658;2023-04-07T10:19:03;99794.00;;;21.17;31.81
8637;BME280;4356;49.068;8.658;2023-04-07T10:21:33;99783.88;;;21.18;31.75
8637;BME280;4356;49.068;8.658;2023-04-07T10:24:15;99785.56;;;21.19;31.83
8637;BME280;4356;49.068;8.658;2023-04-07T10:26:55;99768.47;;;21.12;31.75
8637;BME280;4356;49.068;8.658;2023-04-07T10:29:23;99784.25;;;21.21;31.77
8637;BME280;4356;49.068;8.658;2023-04-07T10:31:50;99780.69;;;21.21;31.79
8637;BME280;4356;49.068;8.658;2023-04-07T10:34:21;99782.56;;;21.20;31.64
8637;BME280;4356;49.068;8.658;2023-04-07T10:37:22;99781.53;;;21.21;31.66
8637;BME280;4356;49.068;8.658;2023-04-07T10:39:49;99766.34;;;21.14;31.79
8637;BME280;4356;49.068;8.658;2023-04-07T10:45:06;99776.59;;;21.23;31.65
8637;BME280;4356;49.068;8.658;2023-04-07T10:47:33;99790.41;;;21.28;31.70
8637;BME280;4356;49.068;8.658;2023-04-07T10:50:20;99797.53;;;21.29;31.82
8637;BME280;4356;49.068;8.658;2023-04-07T10:52:48;99793.72;;;21.30;31.64
8637;BME280;4356;49.068;8.658;2023-04-07T11:03:38;99783.25;;;21.27;31.73
8637;BME280;4356;49.068;8.658;2023-04-07T11:06:12;99786.84;;;21.28;31.81
8637;BME280;4356;49.068;8.658;2023-04-07T11:08:42;99782.66;;;21.25;31.54
8637;BME280;4356;49.068;8.658;2023-04-07T11:11:10;99782.44;;;21.27;31.81
8637;BME280;4356;49.068;8.658;2023-04-07T11:13:43;99783.00;;;21.29;31.85
8637;BME280;4356;49.068;8.658;2023-04-07T11:16:09;99789.06;;;21.31;31.83
8637;BME280;4356;49.068;8.658;2023-04-07T11:18:36;99789.31;;;21.29;31.84
8637;BME280;4356;49.068;8.658;2023-04-07T11:21:02;99784.44;;;21.31;31.98
8637;BME280;4356;49.068;8.658;2023-04-07T11:23:41;99761.47;;;21.16;31.71
8637;BME280;4356;49.068;8.658;2023-04-07T11:26:11;99785.19;;;21.27;31.86
8637;BME280;4356;49.068;8.658;2023-04-07T11:28:50;99795.38;;;21.31;31.78
8637;BME280;4356;49.068;8.658;2023-04-07T11:31:27;99793.13;;;21.28;31.78
8637;BME280;4356;49.068;8.658;2023-04-07T11:34:00;99790.41;;;21.28;31.80
8637;BME280;4356;49.068;8.658;2023-04-07T11:38:57;99794.19;;;21.27;31.81
8637;BME280;4356;49.068;8.658;2023-04-07T11:41:26;99779.94;;;21.25;31.68
8637;BME280;4356;49.068;8.658;2023-04-07T11:44:05;99786.59;;;21.29;31.81
8637;BME280;4356;49.068;8.658;2023-04-07T11:46:30;99786.25;;;21.26;31.78
8637;BME280;4356;49.068;8.658;2023-04-07T11:49:10;99787.41;;;21.30;32.10
8637;BME280;4356;49.068;8.658;2023-04-07T11:51:36;99772.47;;;21.21;31.92
8637;BME280;4356;49.068;8.658;2023-04-07T11:54:05;99794.53;;;21.31;31.92
8637;BME280;4356;49.068;8.658;2023-04-07T11:56:43;99792.41;;;21.33;31.82
8637;BME280;4356;49.068;8.658;2023-04-07T11:59:21;99789.91;;;21.31;31.91
8637;BME280;4356;49.068;8.658;2023-04-07T12:01:49;99792.50;;;21.38;32.04
8637;BME280;4356;49.068;8.658;2023-04-07T12:04:17;99787.03;;;21.38;31.83
8637;BME280;4356;49.068;8.658;2023-04-07T12:06:45;99792.94;;;21.46;31.83
8637;BME280;4356;49.068;8.658;2023-04-07T12:09:29;99805.03;;;21.50;31.49
8637;BME280;4356;49.068;8.658;2023-04-07T12:11:55;99806.97;;;21.50;31.84
8637;BME280;4356;49.068;8.658;2023-04-07T12:14:22;99827.03;;;21.56;31.70
8637;BME280;4356;49.068;8.658;2023-04-07T12:16:48;99816.09;;;21.56;31.76
8637;BME280;4356;49.068;8.658;2023-04-07T12:19:14;99825.09;;;21.56;31.66
8637;BME280;4356;49.068;8.658;2023-04-07T12:21:39;99826.78;;;21.57;31.85
8637;BME280;4356;49.068;8.658;2023-04-07T12:24:05;99829.88;;;21.61;31.69
8637;BME280;4356;49.068;8.658;2023-04-07T12:26:31;99828.19;;;21.60;31.68
8637;BME280;4356;49.068;8.658;2023-04-07T12:28:56;99830.91;;;21.60;31.71
8637;BME280;4356;49.068;8.658;2023-04-07T12:31:30;99819.56;;;21.51;31.66
8637;BME280;4356;49.068;8.658;2023-04-07T12:33:56;99835.59;;;21.59;31.85
8637;BME280;4356;49.068;8.658;2023-04-07T12:36:23;99835.59;;;21.59;31.80
8637;BME280;4356;49.068;8.658;2023-04-07T12:38:50;99837.13;;;21.55;31.46
8637;BME280;4356;49.068;8.658;2023-04-07T12:41:15;99840.22;;;21.59;31.89
8637;BME280;4356;49.068;8.658;2023-04-07T12:43:41;99830.38;;;21.58;31.70
8637;BME280;4356;49.068;8.658;2023-04-07T12:46:07;99835.59;;;21.59;31.72
8637;BME280;4356;49.068;8.658;2023-04-07T12:48:32;99841.06;;;21.59;31.71
8637;BME280;4356;49.068;8.658;2023-04-07T12:50:59;99832.50;;;21.56;31.76
8637;BME280;4356;49.068;8.658;2023-04-07T12:53:25;99832.50;;;21.56;31.79
8637;BME280;4356;49.068;8.658;2023-04-07T12:55:51;99844.59;;;21.60;31.82
8637;BME280;4356;49.068;8.658;2023-04-07T12:58:17;99828.69;;;21.57;31.74
8637;BME280;4356;49.068;8.658;2023-04-07T13:00:44;99832.00;;;21.59;31.80
8637;BME280;4356;49.068;8.658;2023-04-07T13:03:11;99835.34;;;21.61;31.72
8637;BME280;4356;49.068;8.658;2023-04-07T13:05:37;99839.50;;;21.63;31.90
8637;BME280;4356;49.068;8.658;2023-04-07T13:08:03;99832.25;;;21.57;31.85
8637;BME280;4356;49.068;8.658;2023-04-07T13:10:29;99838.91;;;21.61;32.04
8637;BME280;4356;49.068;8.658;2023-04-07T13:12:55;99841.13;;;21.64;31.84
8637;BME280;4356;49.068;8.658;2023-04-07T13:15:21;99847.22;;;21.66;31.76
8637;BME280;4356;49.068;8.658;2023-04-07T13:17:46;99839.00;;;21.66;31.79
8637;BME280;4356;49.068;8.658;2023-04-07T13:20:15;99833.78;;;21.65;31.92
8637;BME280;4356;49.068;8.658;2023-04-07T13:22:40;99833.53;;;21.66;31.72
8637;BME280;4356;49.068;8.658;2023-04-07T13:25:07;99837.91;;;21.67;31.79
8637;BME280;4356;49.068;8.658;2023-04-07T13:27:32;99837.31;;;21.65;31.71
8637;BME280;4356;49.068;8.658;2023-04-07T13:29:58;99841.72;;;21.66;31.69
8637;BME280;4356;49.068;8.658;2023-04-07T13:32:24;99831.03;;;21.65;31.75
8637;BME280;4356;49.068;8.658;2023-04-07T13:34:49;99833.78;;;21.65;31.73
8637;BME280;4356;49.068;8.658;2023-04-07T13:37:15;99824.16;;;21.62;31.89
8637;BME280;4356;49.068;8.658;2023-04-07T13:39:43;99821.66;;;21.61;31.69
8637;BME280;4356;49.068;8.658;2023-04-07T13:42:08;99825.81;;;21.63;31.94
8637;BME280;4356;49.068;8.658;2023-04-07T13:44:34;99804.81;;;21.52;31.81
8637;BME280;4356;49.068;8.658;2023-04-07T13:47:02;99827.81;;;21.68;31.68
8637;BME280;4356;49.068;8.658;2023-04-07T13:49:28;99821.25;;;21.69;31.82
8637;BME280;4356;49.068;8.658;2023-04-07T13:51:54;99821.25;;;21.69;31.80